createdAt,value
2022-09-15T00:01:18.128Z,13.27
2022-09-15T00:03:47.560Z,13.25
2022-09-15T00:06:15.873Z,13.23
2022-09-15T00:08:44.036Z,13.17
2022-09-15T00:11:22.264Z,13.15
2022-09-15T00:13:51.060Z,13.15
2022-09-15T00:16:21.031Z,13.14
2022-09-15T00:18:49.350Z,13.13
2022-09-15T00:21:23.437Z,13.14
2022-09-15T00:23:51.663Z,13.17
2022-09-15T00:26:22.812Z,13.23
2022-09-15T00:28:51.487Z,13.26
2022-09-15T00:31:22.535Z,13.27
2022-09-15T00:33:52.618Z,13.27
2022-09-15T00:36:21.736Z,13.27
2022-09-15T00:38:50.890Z,13.26
2022-09-15T00:41:20.334Z,13.26
2022-09-15T00:44:06.318Z,13.22
2022-09-15T00:46:41.078Z,13.20
2022-09-15T00:49:19.007Z,13.20
2022-09-15T00:51:54.631Z,13.21
2022-09-15T00:54:31.642Z,13.23
2022-09-15T00:57:09.705Z,13.26
2022-09-15T00:59:40.439Z,13.24
2022-09-15T01:02:18.787Z,13.22
2022-09-15T01:04:48.765Z,13.21
2022-09-15T01:07:25.552Z,13.20
2022-09-15T01:10:08.427Z,13.16
2022-09-15T01:12:36.566Z,13.15
2022-09-15T01:15:04.720Z,13.13
2022-09-15T01:17:51.195Z,13.08
2022-09-15T01:20:34.487Z,13.03
2022-09-15T01:23:18.147Z,13.01
2022-09-15T01:26:15.746Z,13.00
2022-09-15T01:29:21.195Z,12.99
2022-09-15T01:32:27.040Z,12.93
2022-09-15T01:35:23.507Z,12.92
2022-09-15T01:38:23.095Z,12.91
2022-09-15T01:41:05.763Z,12.87
2022-09-15T01:43:39.202Z,12.84
2022-09-15T01:46:08.885Z,12.80
2022-09-15T01:48:38.562Z,12.76
2022-09-15T01:51:07.465Z,12.73
2022-09-15T01:53:36.053Z,12.71
2022-09-15T01:56:10.824Z,12.70
2022-09-15T01:58:40.772Z,12.69
2022-09-15T02:01:22.089Z,12.68
2022-09-15T02:03:56.346Z,12.65
2022-09-15T02:06:51.993Z,12.63
2022-09-15T02:09:23.037Z,12.61
2022-09-15T02:12:19.864Z,12.62
2022-09-15T02:15:10.841Z,12.66
2022-09-15T02:17:45.556Z,12.68
2022-09-15T02:20:23.613Z,12.69
2022-09-15T02:23:00.029Z,12.66
2022-09-15T02:25:32.693Z,12.66
2022-09-15T02:28:04.587Z,12.59
2022-09-15T02:30:33.077Z,12.57
2022-09-15T02:33:06.673Z,12.58
2022-09-15T02:35:36.121Z,12.55
2022-09-15T02:38:09.058Z,12.52
2022-09-15T02:40:41.196Z,12.49
2022-09-15T02:43:14.101Z,12.44
2022-09-15T02:45:42.179Z,12.41
2022-09-15T02:48:09.997Z,12.37
2022-09-15T02:50:38.885Z,12.30
2022-09-15T02:53:07.811Z,12.23
2022-09-15T02:55:35.585Z,12.20
2022-09-15T02:58:04.770Z,12.18
2022-09-15T03:00:33.466Z,12.18
2022-09-15T03:03:01.215Z,12.17
2022-09-15T03:05:30.225Z,12.15
2022-09-15T03:07:58.049Z,12.13
2022-09-15T03:10:26.445Z,12.13
2022-09-15T03:12:55.235Z,12.15
2022-09-15T03:15:24.850Z,12.17
2022-09-15T03:17:53.463Z,12.18
2022-09-15T03:20:24.259Z,12.18
2022-09-15T03:22:52.021Z,12.22
2022-09-15T03:25:20.832Z,12.26
2022-09-15T03:27:48.537Z,12.28
2022-09-15T03:30:16.350Z,12.29
2022-09-15T03:32:45.969Z,12.28
2022-09-15T03:35:13.762Z,12.30
2022-09-15T03:37:41.550Z,12.30
2022-09-15T03:40:10.739Z,12.29
2022-09-15T03:42:38.635Z,12.28
2022-09-15T03:45:08.407Z,12.28
2022-09-15T03:47:36.111Z,12.31
2022-09-15T03:50:04.150Z,12.31
2022-09-15T03:52:32.154Z,12.30
2022-09-15T03:54:59.880Z,12.31
2022-09-15T03:57:27.727Z,12.26
2022-09-15T03:59:55.496Z,12.22
2022-09-15T04:02:23.339Z,12.18
2022-09-15T04:04:51.136Z,12.13
2022-09-15T04:07:18.841Z,12.10
2022-09-15T04:09:46.582Z,12.05
2022-09-15T04:12:14.326Z,12.00
2022-09-15T04:14:42.169Z,11.97
2022-09-15T04:17:11.525Z,11.91
2022-09-15T04:19:39.326Z,11.88
2022-09-15T04:22:07.891Z,11.84
2022-09-15T04:24:36.296Z,11.79
2022-09-15T04:27:04.261Z,11.73
2022-09-15T04:29:31.964Z,11.67
2022-09-15T04:31:59.716Z,11.63
2022-09-15T04:34:27.487Z,11.61
2022-09-15T04:36:55.208Z,11.61
2022-09-15T04:39:23.429Z,11.62
2022-09-15T04:41:51.251Z,11.65
2022-09-15T04:44:19.109Z,11.69
2022-09-15T04:46:46.907Z,11.73
2022-09-15T04:49:14.692Z,11.78
2022-09-15T04:51:42.642Z,11.82
2022-09-15T04:54:10.735Z,11.84
2022-09-15T04:56:39.188Z,11.88
2022-09-15T04:59:16.600Z,11.91
2022-09-15T05:01:45.269Z,11.98
2022-09-15T05:04:13.428Z,12.01
2022-09-15T05:06:41.285Z,12.07
2022-09-15T05:09:13.529Z,12.12
2022-09-15T05:11:41.437Z,12.16
2022-09-15T05:14:10.624Z,12.23
2022-09-15T05:16:40.046Z,12.27
2022-09-15T05:19:09.276Z,12.33
2022-09-15T05:21:36.989Z,12.37
2022-09-15T05:24:05.457Z,12.42
2022-09-15T05:26:33.432Z,12.48
2022-09-15T05:29:01.197Z,12.51
2022-09-15T05:31:31.414Z,12.54
2022-09-15T05:34:04.330Z,12.59
2022-09-15T05:36:33.907Z,12.59
2022-09-15T05:39:01.925Z,12.58
2022-09-15T05:41:30.793Z,12.57
2022-09-15T05:43:58.975Z,12.62
2022-09-15T05:46:29.033Z,12.69
2022-09-15T05:48:58.568Z,12.75
2022-09-15T05:51:30.397Z,12.81
2022-09-15T05:53:59.779Z,12.87
2022-09-15T05:56:27.866Z,12.93
2022-09-15T05:58:57.195Z,12.99
2022-09-15T06:01:28.525Z,13.02
2022-09-15T06:03:57.651Z,13.06
2022-09-15T06:10:09.175Z,13.22
2022-09-15T06:12:36.890Z,13.31
2022-09-15T06:15:04.951Z,13.41
2022-09-15T06:17:34.032Z,13.51
2022-09-15T06:20:01.969Z,13.63
2022-09-15T06:22:44.881Z,13.75
2022-09-15T06:25:14.791Z,13.87
2022-09-15T06:27:43.549Z,13.99
2022-09-15T06:30:12.353Z,14.07
2022-09-15T06:32:40.369Z,14.14
2022-09-15T06:35:08.604Z,14.18
2022-09-15T06:37:36.472Z,14.23
2022-09-15T06:40:05.185Z,14.28
2022-09-15T06:42:33.078Z,14.30
2022-09-15T06:45:01.121Z,14.30
2022-09-15T06:47:33.775Z,14.29
2022-09-15T06:50:01.544Z,14.28
2022-09-15T06:52:29.307Z,14.28
2022-09-15T06:54:59.104Z,14.28
2022-09-15T06:57:32.166Z,14.25
2022-09-15T07:00:09.445Z,14.23
2022-09-15T07:02:39.622Z,14.23
2022-09-15T07:05:11.271Z,14.24
2022-09-15T07:07:46.143Z,14.24
2022-09-15T07:10:13.862Z,14.26
2022-09-15T07:12:42.455Z,14.28
2022-09-15T07:15:10.725Z,14.30
2022-09-15T07:17:39.260Z,14.34
2022-09-15T07:20:09.053Z,14.41
2022-09-15T07:22:52.881Z,14.49
2022-09-15T07:25:20.495Z,14.55
2022-09-15T07:27:48.183Z,14.56
2022-09-15T07:30:15.972Z,14.62
2022-09-15T07:32:43.618Z,14.68
2022-09-15T07:35:11.265Z,14.71
2022-09-15T07:37:39.471Z,14.75
2022-09-15T07:40:07.920Z,14.79
2022-09-15T07:42:35.744Z,14.80
2022-09-15T07:45:03.813Z,14.84
2022-09-15T07:47:35.850Z,14.90
2022-09-15T07:50:05.930Z,14.95
2022-09-15T07:52:33.758Z,14.99
2022-09-15T07:55:01.487Z,15.04
2022-09-15T07:57:29.220Z,15.08
2022-09-15T07:59:56.985Z,15.14
2022-09-15T08:02:24.841Z,15.15
2022-09-15T08:04:53.100Z,15.19
2022-09-15T08:07:20.843Z,15.26
2022-09-15T08:09:48.620Z,15.35
2022-09-15T08:12:16.669Z,15.43
2022-09-15T08:14:44.814Z,15.51
2022-09-15T08:17:12.629Z,15.56
2022-09-15T08:19:40.532Z,15.60
2022-09-15T08:22:10.893Z,15.65
2022-09-15T08:24:41.172Z,15.70
2022-09-15T08:27:09.064Z,15.75
2022-09-15T08:29:36.820Z,15.79
2022-09-15T08:32:05.114Z,15.83
2022-09-15T08:34:32.853Z,15.89
2022-09-15T08:37:00.920Z,15.92
2022-09-15T08:39:28.848Z,15.95
2022-09-15T08:42:02.761Z,16.00
2022-09-15T08:44:39.994Z,16.08
2022-09-15T08:47:15.836Z,16.13
2022-09-15T08:49:58.879Z,16.19
2022-09-15T08:52:33.414Z,16.27
2022-09-15T08:55:06.923Z,16.29
2022-09-15T08:57:34.514Z,16.33
2022-09-15T09:00:02.714Z,16.35
2022-09-15T09:03:03.427Z,16.41
2022-09-15T09:05:41.659Z,16.46
2022-09-15T09:08:25.765Z,16.49
2022-09-15T09:11:19.957Z,16.55
2022-09-15T09:14:08.547Z,16.55
2022-09-15T09:16:51.370Z,16.53
2022-09-15T09:19:53.027Z,16.62
2022-09-15T09:22:29.467Z,16.70
2022-09-15T09:25:00.148Z,16.77
2022-09-15T09:27:34.943Z,16.83
2022-09-15T09:30:14.061Z,16.95
2022-09-15T09:32:54.034Z,16.98
2022-09-15T09:35:45.678Z,17.06
2022-09-15T09:38:21.962Z,17.22
2022-09-15T09:40:50.777Z,17.37
2022-09-15T09:43:19.067Z,17.47
2022-09-15T09:45:50.246Z,17.50
2022-09-15T09:48:21.978Z,17.58
2022-09-15T09:50:50.832Z,17.68
2022-09-15T09:53:18.520Z,17.79
2022-09-15T09:55:46.370Z,17.91
2022-09-15T09:58:24.282Z,17.98
2022-09-15T10:00:53.122Z,18.07
2022-09-15T10:03:22.331Z,18.22
2022-09-15T10:06:06.113Z,18.37
2022-09-15T10:08:36.839Z,18.49
2022-09-15T10:11:10.247Z,18.59
2022-09-15T10:13:49.825Z,18.62
2022-09-15T10:16:19.350Z,18.69
2022-09-15T10:18:54.001Z,18.74
2022-09-15T10:21:24.843Z,18.75
2022-09-15T10:23:53.154Z,18.76
2022-09-15T10:26:24.020Z,18.79
2022-09-15T10:29:11.169Z,18.90
2022-09-15T10:31:39.719Z,18.99
2022-09-15T10:34:30.622Z,18.98
2022-09-15T10:37:20.049Z,19.00
2022-09-15T10:39:52.993Z,19.16
2022-09-15T10:42:36.775Z,19.37
2022-09-15T10:45:13.370Z,19.61
2022-09-15T10:48:08.945Z,19.79
2022-09-15T10:50:46.783Z,19.88
2022-09-15T10:53:31.394Z,19.98
2022-09-15T10:56:14.983Z,20.06
2022-09-15T10:59:00.819Z,20.03
2022-09-15T11:01:29.676Z,19.95
2022-09-15T11:04:27.045Z,19.89
2022-09-15T11:07:16.570Z,19.85
2022-09-15T11:09:57.479Z,19.78
2022-09-15T11:12:31.264Z,19.69
2022-09-15T11:15:11.546Z,19.59
2022-09-15T11:18:18.215Z,19.42
2022-09-15T11:21:19.351Z,19.25
2022-09-15T11:24:05.952Z,19.26
2022-09-15T11:26:40.237Z,19.35
2022-09-15T11:29:25.158Z,19.45
2022-09-15T11:34:36.504Z,19.63
2022-09-15T11:37:12.097Z,19.69
2022-09-15T11:39:45.159Z,19.60
2022-09-15T11:42:46.540Z,19.49
2022-09-15T11:45:25.502Z,19.33
2022-09-15T11:47:59.700Z,19.19
2022-09-15T11:50:35.799Z,19.10
2022-09-15T11:53:36.589Z,18.98
2022-09-15T11:56:15.913Z,18.85
2022-09-15T11:58:55.405Z,18.71
2022-09-15T12:01:28.654Z,18.54
2022-09-15T12:04:13.928Z,18.39
2022-09-15T12:07:14.477Z,18.23
2022-09-15T12:09:42.878Z,18.10
2022-09-15T12:12:17.986Z,18.04
2022-09-15T12:14:49.246Z,18.08
2022-09-15T12:17:37.515Z,18.22
2022-09-15T12:20:48.477Z,18.36
2022-09-15T12:23:16.169Z,18.45
2022-09-15T12:26:10.835Z,18.49
2022-09-15T12:28:56.197Z,18.49
2022-09-15T12:31:36.737Z,18.47
2022-09-15T12:34:21.558Z,18.53
2022-09-15T12:36:52.435Z,18.62
2022-09-15T12:39:28.651Z,18.76
2022-09-15T12:42:05.815Z,19.00
2022-09-15T12:44:40.364Z,19.23
2022-09-15T12:47:20.617Z,19.38
2022-09-15T12:49:51.662Z,19.48
2022-09-15T12:52:22.566Z,19.84
2022-09-15T12:54:55.504Z,19.81
2022-09-15T12:57:25.996Z,19.58
2022-09-15T13:00:32.491Z,19.34
2022-09-15T13:03:47.424Z,18.99
2022-09-15T13:06:21.426Z,18.68
2022-09-15T13:08:51.148Z,18.50
2022-09-15T13:11:37.691Z,18.42
2022-09-15T13:14:12.301Z,18.36
2022-09-15T13:16:40.264Z,18.23
2022-09-15T13:19:12.305Z,18.17
2022-09-15T13:21:45.050Z,18.11
2022-09-15T13:24:38.205Z,18.01
2022-09-15T13:27:07.715Z,17.84
2022-09-15T13:29:53.068Z,17.73
2022-09-15T13:32:40.997Z,17.65
2022-09-15T13:35:24.966Z,17.57
2022-09-15T13:38:20.001Z,17.55
2022-09-15T13:40:52.293Z,17.61
2022-09-15T13:43:26.174Z,18.17
2022-09-15T13:46:12.515Z,18.48
2022-09-15T13:48:59.387Z,18.52
2022-09-15T13:51:29.894Z,18.55
2022-09-15T13:54:05.560Z,18.54
2022-09-15T13:56:38.516Z,18.87
2022-09-15T13:59:16.851Z,18.79
2022-09-15T14:01:45.556Z,18.55
2022-09-15T14:04:26.893Z,18.38
2022-09-15T14:07:00.240Z,18.25
2022-09-15T14:09:40.347Z,18.03
2022-09-15T14:12:12.029Z,17.81
2022-09-15T14:14:46.562Z,17.65
2022-09-15T14:17:23.974Z,17.53
2022-09-15T14:19:54.495Z,17.41
2022-09-15T14:22:29.945Z,17.31
2022-09-15T14:24:59.529Z,17.25
2022-09-15T14:27:30.577Z,17.24
2022-09-15T14:30:03.165Z,17.27
2022-09-15T14:32:38.396Z,17.39
2022-09-15T14:35:09.397Z,18.93
2022-09-15T14:37:37.264Z,20.71
2022-09-15T14:40:37.716Z,20.86
2022-09-15T14:43:42.037Z,20.41
2022-09-15T14:46:17.008Z,20.83
2022-09-15T14:48:44.918Z,20.82
2022-09-15T14:51:33.254Z,20.72
2022-09-15T14:54:05.453Z,21.86
2022-09-15T14:56:38.423Z,22.79
2022-09-15T14:59:19.072Z,22.50
2022-09-15T15:01:55.414Z,22.66
2022-09-15T15:04:36.234Z,23.52
2022-09-15T15:07:04.933Z,23.13
2022-09-15T15:09:54.416Z,23.67
2022-09-15T15:12:43.572Z,23.00
2022-09-15T15:15:16.585Z,21.74
2022-09-15T15:17:50.785Z,21.01
2022-09-15T15:20:22.841Z,20.38
2022-09-15T15:23:22.958Z,19.80
2022-09-15T15:25:51.776Z,19.26
2022-09-15T15:28:36.456Z,18.93
2022-09-15T15:31:12.261Z,18.67
2022-09-15T15:33:56.615Z,18.51
2022-09-15T15:36:26.370Z,18.37
2022-09-15T15:38:57.058Z,18.31
2022-09-15T15:41:28.367Z,18.25
2022-09-15T15:44:09.199Z,18.30
2022-09-15T15:46:54.784Z,18.20
2022-09-15T15:49:31.910Z,18.00
2022-09-15T15:52:02.503Z,17.87
2022-09-15T15:54:34.144Z,17.71
2022-09-15T15:57:22.050Z,17.56
2022-09-15T15:59:56.921Z,17.36
2022-09-15T16:02:28.260Z,17.19
2022-09-15T16:04:56.103Z,17.02
2022-09-15T16:07:29.923Z,16.91
2022-09-15T16:10:01.740Z,16.73
2022-09-15T16:12:31.965Z,16.56
2022-09-15T16:15:10.427Z,16.31
2022-09-15T16:17:40.844Z,16.06
2022-09-15T16:20:11.748Z,15.83
2022-09-15T16:22:40.622Z,15.67
2022-09-15T16:25:30.854Z,15.56
2022-09-15T16:28:00.405Z,15.42
2022-09-15T16:30:28.485Z,15.33
2022-09-15T16:32:56.285Z,15.24
2022-09-15T16:35:33.406Z,15.16
2022-09-15T16:38:01.325Z,15.09
2022-09-15T16:40:29.333Z,15.03
2022-09-15T16:42:57.481Z,14.97
2022-09-15T16:45:38.194Z,14.88
2022-09-15T16:48:10.489Z,14.81
2022-09-15T16:50:40.146Z,14.74
2022-09-15T16:53:15.668Z,14.64
2022-09-15T16:55:47.287Z,14.52
2022-09-15T16:58:16.729Z,14.40
2022-09-15T17:00:47.100Z,14.31
2022-09-15T17:03:17.413Z,14.23
2022-09-15T17:05:50.158Z,14.19
2022-09-15T17:08:20.358Z,14.16
2022-09-15T17:10:49.252Z,14.10
2022-09-15T17:13:22.260Z,14.05
2022-09-15T17:15:54.092Z,13.99
2022-09-15T17:18:22.730Z,13.94
2022-09-15T17:20:50.898Z,13.90
2022-09-15T17:23:27.955Z,13.86
2022-09-15T17:25:59.727Z,13.84
2022-09-15T17:28:33.107Z,13.83
2022-09-15T17:31:03.910Z,13.82
2022-09-15T17:33:32.985Z,13.80
2022-09-15T17:36:00.871Z,13.78
2022-09-15T17:38:28.832Z,13.76
2022-09-15T17:40:56.627Z,13.72
2022-09-15T17:43:27.232Z,13.68
2022-09-15T17:45:55.610Z,13.65
2022-09-15T17:48:23.694Z,13.61
2022-09-15T17:50:52.314Z,13.57
2022-09-15T17:53:23.435Z,13.52
2022-09-15T17:55:51.228Z,13.49
2022-09-15T17:58:19.105Z,13.46
2022-09-15T18:00:48.678Z,13.43
2022-09-15T18:03:22.262Z,13.40
2022-09-15T18:05:51.525Z,13.37
2022-09-15T18:08:19.385Z,13.36
2022-09-15T18:10:47.722Z,13.34
2022-09-15T18:13:19.573Z,13.34
2022-09-15T18:15:51.202Z,13.32
2022-09-15T18:18:22.668Z,13.32
2022-09-15T18:20:52.903Z,13.33
2022-09-15T18:23:24.032Z,13.33
2022-09-15T18:25:52.278Z,13.33
2022-09-15T18:28:20.320Z,13.33
2022-09-15T18:30:50.399Z,13.28
2022-09-15T18:33:24.475Z,13.23
2022-09-15T18:35:55.276Z,13.15
2022-09-15T18:38:23.224Z,13.07
2022-09-15T18:40:54.011Z,12.98
2022-09-15T18:43:23.539Z,12.89
2022-09-15T18:45:53.244Z,12.80
2022-09-15T18:48:21.506Z,12.70
2022-09-15T18:50:49.513Z,12.62
2022-09-15T18:53:17.255Z,12.53
2022-09-15T18:55:45.071Z,12.45
2022-09-15T18:58:13.487Z,12.39
2022-09-15T19:00:41.823Z,12.32
2022-09-15T19:03:09.707Z,12.25
2022-09-15T19:05:38.539Z,12.19
2022-09-15T19:08:08.458Z,12.13
2022-09-15T19:10:39.379Z,12.07
2022-09-15T19:13:07.553Z,12.01
2022-09-15T19:15:35.418Z,11.94
2022-09-15T19:18:03.517Z,11.88
2022-09-15T19:20:31.263Z,11.82
2022-09-15T19:22:59.127Z,11.78
2022-09-15T19:25:27.092Z,11.73
2022-09-15T19:27:54.952Z,11.67
2022-09-15T19:30:25.378Z,11.62
2022-09-15T19:32:54.017Z,11.58
2022-09-15T19:35:22.978Z,11.53
2022-09-15T19:37:51.113Z,11.49
2022-09-15T19:40:19.097Z,11.46
2022-09-15T19:42:47.221Z,11.43
2022-09-15T19:45:14.993Z,11.39
2022-09-15T19:47:42.864Z,11.36
2022-09-15T19:50:12.048Z,11.30
2022-09-15T19:52:40.142Z,11.25
2022-09-15T19:55:09.555Z,11.19
2022-09-15T19:57:41.951Z,11.12
2022-09-15T20:00:12.390Z,11.07
2022-09-15T20:02:40.721Z,11.03
2022-09-15T20:05:09.248Z,11.01
2022-09-15T20:07:37.067Z,11.00
2022-09-15T20:10:05.585Z,10.98
2022-09-15T20:12:33.588Z,10.96
2022-09-15T20:15:01.761Z,10.94
2022-09-15T20:17:29.781Z,10.93
2022-09-15T20:19:57.809Z,10.92
2022-09-15T20:22:26.006Z,10.90
2022-09-15T20:24:56.015Z,10.84
2022-09-15T20:27:23.905Z,10.77
2022-09-15T20:29:51.748Z,10.69
2022-09-15T20:32:22.807Z,10.63
2022-09-15T20:34:53.867Z,10.57
2022-09-15T20:37:23.014Z,10.54
2022-09-15T20:39:51.385Z,10.51
2022-09-15T20:42:19.467Z,10.50
2022-09-15T20:44:47.352Z,10.49
2022-09-15T20:47:15.131Z,10.50
2022-09-15T20:49:42.945Z,10.48
2022-09-15T20:52:10.767Z,10.47
2022-09-15T20:54:38.549Z,10.48
2022-09-15T20:57:06.900Z,10.48
2022-09-15T20:59:34.781Z,10.48
2022-09-15T21:02:05.657Z,10.46
2022-09-15T21:04:33.919Z,10.45
2022-09-15T21:07:01.720Z,10.42
2022-09-15T21:09:29.491Z,10.38
2022-09-15T21:11:57.357Z,10.34
2022-09-15T21:14:25.178Z,10.30
2022-09-15T21:16:53.871Z,10.24
2022-09-15T21:19:21.857Z,10.20
2022-09-15T21:21:49.742Z,10.16
2022-09-15T21:24:17.521Z,10.14
2022-09-15T21:27:01.277Z,10.13
2022-09-15T21:29:30.059Z,10.12
2022-09-15T21:31:57.976Z,10.09
2022-09-15T21:34:26.315Z,10.07
2022-09-15T21:36:54.547Z,10.02
2022-09-15T21:39:22.780Z,9.97
2022-09-15T21:41:50.653Z,9.90
2022-09-15T21:44:18.702Z,9.84
2022-09-15T21:46:47.187Z,9.79
2022-09-15T21:49:15.130Z,9.73
2022-09-15T21:51:42.909Z,9.68
2022-09-15T21:54:10.713Z,9.66
2022-09-15T21:56:38.541Z,9.63
2022-09-15T21:59:08.245Z,9.64
2022-09-15T22:01:36.704Z,9.67
2022-09-15T22:04:06.487Z,9.70
2022-09-15T22:06:36.955Z,9.75
2022-09-15T22:09:08.634Z,9.81
2022-09-15T22:11:37.062Z,9.87
2022-09-15T22:14:08.120Z,9.93
2022-09-15T22:16:38.275Z,9.98
2022-09-15T22:19:07.963Z,10.00
2022-09-15T22:21:37.060Z,10.00
2022-09-15T22:24:07.165Z,10.00
2022-09-15T22:26:37.416Z,10.01
2022-09-15T22:29:06.333Z,9.99
2022-09-15T22:31:35.014Z,9.98
2022-09-15T22:34:03.650Z,9.95
2022-09-15T22:39:58.120Z,9.95
2022-09-15T22:42:25.897Z,9.97
2022-09-15T22:44:53.649Z,9.98
2022-09-15T22:47:21.562Z,9.99
2022-09-15T22:49:49.825Z,10.01
2022-09-15T22:52:18.046Z,10.02
2022-09-15T22:54:46.002Z,10.03
2022-09-15T22:57:14.328Z,10.04
2022-09-15T22:59:42.419Z,10.07
2022-09-15T23:02:10.455Z,10.09
2022-09-15T23:04:38.452Z,10.12
2022-09-15T23:07:06.232Z,10.16
2022-09-15T23:09:36.044Z,10.20
2022-09-15T23:12:04.064Z,10.25
2022-09-15T23:14:32.325Z,10.29
2022-09-15T23:17:00.233Z,10.33
2022-09-15T23:19:28.341Z,10.35
2022-09-15T23:21:56.192Z,10.38
2022-09-15T23:24:24.058Z,10.40
2022-09-15T23:26:51.782Z,10.42
2022-09-15T23:29:19.801Z,10.43
2022-09-15T23:31:47.627Z,10.42
2022-09-15T23:34:15.835Z,10.41
2022-09-15T23:36:43.604Z,10.41
2022-09-15T23:39:11.664Z,10.40
2022-09-15T23:41:40.575Z,10.39
2022-09-15T23:44:08.492Z,10.40
2022-09-15T23:46:36.363Z,10.41
2022-09-15T23:49:04.159Z,10.40
2022-09-15T23:51:32.288Z,10.41
2022-09-15T23:54:02.054Z,10.42
2022-09-15T23:56:30.132Z,10.41
2022-09-15T23:58:57.951Z,10.41
